Rapports des METAR proches

 

LFAQ - Bray, France
Distance from station: SSO 19km
Mise à jour: 06/06/2020 07:00
Orage
Orage
 Vent OSO
Vent: OSO 20 km/h
Température: 10°C
Température au vent: 7°C
Point de rosée: 9°C
Humidité: 94%
Baromètre: 1000 hPa
Clouds: Orage
Visibility: 10 km
Cloud details: Quelques nuages 732 m
Partiellement nuageux 1067 m
Très nuageux 1494 m
2020/06/06 05:00 LFAQ 060500Z AUTO 24011KT 9999 FEW024/// SCT035/// BKN049/// ///TCU 10/09 Q1000
LFQQ - Lille/Lesquin, France
Distance from station: NNE 53km
Mise à jour: 06/06/2020 07:00
Orage
Orage
 Vent SSO
Vent: SSO 15 km/h
Température: 9°C
Température au vent: 7°C
Point de rosée: 7°C
Humidité: 87%
Baromètre: 999 hPa
Clouds: Orage
Visibility: 10 km
Cloud details: Quelques nuages 396 m
Très nuageux 2256 m
2020/06/06 05:00 LFQQ 060500Z AUTO 21008KT 9999 FEW013/// BKN074/// ///CB 09/07 Q0999 TEMPO 4000 SHRA
EBCV - Chievres Ab, Belgium
Distance from station: NE 88km
Mise à jour: 06/06/2020 07:20
Pluie faible, Couvert
Pluie faible, Couvert
 Vent OSO
Vent: OSO 15 km/h
Température: 9°C
Température au vent: 7°C
Point de rosée: 8°C
Humidité: 94%
Baromètre: 1000 hPa
Résumé: Pluie faible
Clouds: Couvert
Visibility: 7 km
Cloud details: Couvert 1341 m
2020/06/06 05:20 EBCV 060520Z AUTO 24008KT 7000 -RA OVC044/// 09/08 Q1000 WHT
 
LFOB - Beauvais/Tille(A, France
Distance from station: SSO 88km
Mise à jour: 06/06/2020 07:00
Très nuageux
Très nuageux
 Vent O
Vent: O 13 km/h
Température: 10°C
Température au vent: 8°C
Point de rosée: 8°C
Humidité: 88%
Baromètre: 1002 hPa
Clouds: Très nuageux
Visibility: 10 km
Cloud details: Quelques nuages 975 m
Très nuageux 1158 m
Très nuageux 2256 m
2020/06/06 05:00 LFOB 060500Z AUTO 26007KT 9999 FEW032 BKN038 BKN074 10/08 Q1002 TEMPO 4000 SHRA BKN007 BKN025TCU
LFAT - Le Touquet/P. Pl, France
Distance from station: ONO 93km
Mise à jour: 06/06/2020 07:00
Quelques nuages
Quelques nuages
 Vent ONO
Vent: ONO 17 km/h
Température: 11°C
Point de rosée: 5°C
Humidité: 67%
Baromètre: 1000 hPa
Clouds: Quelques nuages
Visibility: 10 km
Cloud details: Quelques nuages 853 m
2020/06/06 05:00 LFAT 060500Z AUTO 29009KT 260V320 9999 FEW028 11/05 Q1000
EBFN - Koksijde (bel-Af, Belgium
Distance from station: N 105km
Mise à jour: 06/06/2020 06:55
Très nuageux
Très nuageux
 Vent SO
Vent: SO 13 km/h
Température: 8°C
Température au vent: 6°C
Point de rosée: 6°C
Humidité: 87%
Baromètre: 998 hPa
Clouds: Très nuageux
Visibility: 10 km
Cloud details: Très nuageux 975 m
2020/06/06 04:55 EBFN 060455Z AUTO 23007KT 9999 BKN032/// 08/06 Q0998 BLU
 
EBOS - Oostende Airport, Belgium
Distance from station: N 119km
Mise à jour: 06/06/2020 07:20
Quelques nuages
Quelques nuages
 Vent SO
Vent: SO 17 km/h
Température: 9°C
Température au vent: 7°C
Point de rosée: 6°C
Humidité: 82%
Baromètre: 998 hPa
Clouds: Quelques nuages
Visibility: 10 km
Cloud details: Quelques nuages 762 m
2020/06/06 05:20 EBOS 060520Z 22009KT 9999 FEW025 09/06 Q0998 NOSIG
EBCI - Charleroi/Gossel, Belgium
Distance from station: ENE 124km
Mise à jour: 06/06/2020 07:20
Pluie faible, Averses, Partiellement nuageux
Pluie faible, Averses, Partiellement nuageux
 Vent OSO
Vent: OSO 22 km/h
Température: 8°C
Température au vent: 4°C
Point de rosée: 7°C
Humidité: 93%
Baromètre: 1000 hPa
Résumé: Pluie faible, Averses
Clouds: Partiellement nuageux
Visibility: 10 km
Cloud details: Quelques nuages 884 m
Partiellement nuageux 1372 m
2020/06/06 05:20 EBCI 060520Z AUTO 24012KT 9999 -SHRA FEW029/// SCT045/// 08/07 Q1000
LFPG - Charles De Gaull, France
Distance from station: S 125km
Mise à jour: 06/06/2020 07:00
Pluie faible, Orage
Pluie faible, Orage
 Vent OSO
Vent: OSO 17 km/h
Température: 11°C
Point de rosée: 9°C
Humidité: 88%
Baromètre: 1002 hPa
Résumé: Pluie faible
Clouds: Orage
Visibility: 10 km
Cloud details: Très nuageux 518 m
Très nuageux 792 m
Très nuageux 1189 m
2020/06/06 05:00 LFPG 060500Z AUTO 25009KT 9999 -RA BKN017/// BKN026/// BKN039/// ///TCU 11/09 Q1002 NOSIG
 
LFPT - Cormeilles Vexin, France
Distance from station: SSO 127km
Mise à jour: 06/06/2020 07:00
Très nuageux
Très nuageux
 Vent OSO
Vent: OSO 13 km/h
Température: 11°C
Point de rosée: 9°C
Humidité: 88%
Baromètre: 1002 hPa
Clouds: Très nuageux
Visibility: 10 km
Cloud details: Quelques nuages 1341 m
Partiellement nuageux 1707 m
Très nuageux 2012 m
2020/06/06 05:00 LFPT 060500Z AUTO 25007KT 220V280 9999 FEW044 SCT056 BKN066 11/09 Q1002
LFPB - Paris/Le Bourget, France
Distance from station: S 132km
Mise à jour: 06/06/2020 07:00
Pluie faible, Orage
Pluie faible, Orage
 Vent OSO
Vent: OSO 13 km/h
Température: 12°C
Point de rosée: 9°C
Humidité: 82%
Baromètre: 1002 hPa
Résumé: Pluie faible
Clouds: Orage
Visibility: 10 km
Cloud details: Quelques nuages 579 m
Très nuageux 1402 m
Très nuageux 1646 m
2020/06/06 05:00 LFPB 060500Z AUTO 24007KT 9999 -RA FEW019/// BKN046/// BKN054/// ///TCU 12/09 Q1002
EBFS - Florennes (bel-A, Belgium
Distance from station: E 133km
Mise à jour: 06/06/2020 06:55
Très nuageux
Très nuageux
 Vent SO
Vent: SO 22 km/h
Température: 9°C
Température au vent: 6°C
Point de rosée: 8°C
Humidité: 94%
Baromètre: 999 hPa
Clouds: Très nuageux
Visibility: 10 km
Cloud details: Quelques nuages 183 m
Très nuageux 274 m
Très nuageux 3353 m
2020/06/06 04:55 EBFS 060455Z AUTO 22012KT 9999 FEW006/// BKN009/// BKN110/// 09/08 Q0999 GRN
 
LFQA - Reims/Prunay, France
Distance from station: SE 143km
Mise à jour: 06/06/2020 07:00
Couvert
Couvert
 Vent OSO
Vent: OSO 11 km/h
Température: 12°C
Point de rosée: 10°C
Humidité: 88%
Baromètre: 1002 hPa
Clouds: Couvert
Visibility: 10 km
Cloud details: Quelques nuages 579 m
Couvert 3048 m
2020/06/06 05:00 LFQA 060500Z AUTO 25006KT 9999 FEW019 OVC100 12/10 Q1002
LFOP - Rouen/Boos (aut), France
Distance from station: SO 144km
Mise à jour: 06/06/2020 07:00
Orage
Orage
 Vent O
Vent: O 11 km/h
Température: 9°C
Température au vent: 7°C
Point de rosée: 9°C
Humidité: 100%
Baromètre: 1002 hPa
Clouds: Orage
Visibility: 10 km
Cloud details: Partiellement nuageux 274 m
Très nuageux 396 m
Très nuageux 579 m
2020/06/06 05:00 LFOP 060500Z AUTO 27006KT 240V310 9999 SCT009/// BKN013/// BKN019/// ///TCU 09/09 Q1002
EBBR - Brussels Nationa, Belgium
Distance from station: NE 148km
Mise à jour: 06/06/2020 07:20
Pluie faible, Averses, Très nuageux
Pluie faible, Averses, Très nuageux
 Vent SO
Vent: SO 13 km/h
Température: 9°C
Température au vent: 7°C
Point de rosée: 8°C
Humidité: 94%
Baromètre: 999 hPa
Résumé: Pluie faible, Averses
Clouds: Très nuageux
Visibility: 10 km
Cloud details: Partiellement nuageux 274 m
Très nuageux 1311 m
2020/06/06 05:20 EBBR 060520Z 22007KT 9999 -SHRA SCT009 BKN043 09/08 Q0999 TEMPO BKN010
 
EBBE - Beauvechain (baf, Belgium
Distance from station: ENE 156km
Mise à jour: 06/06/2020 07:03
Fortes pluies, Très nuageux
Fortes pluies, Très nuageux
 Vent OSO
Vent: OSO 17 km/h
Température: 9°C
Température au vent: 7°C
Point de rosée: 8°C
Humidité: 94%
Baromètre: 999 hPa
Résumé: Fortes pluies
Clouds: Très nuageux
Visibility: 4 km
Cloud details: Quelques nuages 213 m
Partiellement nuageux 396 m
Très nuageux 488 m
2020/06/06 05:03 EBBE 060503Z AUTO 24009KT 3700 +RA FEW007/// SCT013/// BKN016/// 09/08 Q0999 GRN
EHFS - Vlissingen, Netherlands
Distance from station: NNE 157km
Mise à jour: 06/06/2020 06:55
Crachin, Couvert
Crachin, Couvert
 Vent SSO
Vent: SSO 20 km/h
Température: 10°C
Température au vent: 7°C
Point de rosée: 7°C
Humidité: 82%
Baromètre: 997 hPa
Résumé: Crachin
Clouds: Couvert
Visibility: 10 km
Cloud details: Quelques nuages 853 m
Couvert 1067 m
2020/06/06 04:55 EHFS 060455Z AUTO 20011KT 9999 DZ FEW028/// OVC035/// 10/07 Q0997 RERA REDZ
LFPV - Villacoublay/Vel, France
Distance from station: SSO 157km
Mise à jour: 06/06/2020 07:00
Pluie faible, Brume, Orage
Pluie faible, Brume, Orage
 Vent O
Vent: O 15 km/h
Température: 10°C
Température au vent: 8°C
Point de rosée: 10°C
Humidité: 100%
Baromètre: 1003 hPa
Résumé: Pluie faible, Brume
Clouds: Orage
Visibility: 5 km
Cloud details: Partiellement nuageux 213 m
Très nuageux 366 m
Très nuageux 1128 m
2020/06/06 05:00 LFPV 060500Z AUTO 26008KT 230V290 4500 -RA BR SCT007/// BKN012/// BKN037/// ///TCU 10/10 Q1003 BECMG 9999 NSW BKN035
 
EGMD - Lydd Airport, United Kingdom
Distance from station: NO 160km
Mise à jour: 06/06/2020 07:20
Clair
Clair
 Vent O
Vent: O 19 km/h
Température: 9°C
Température au vent: 6°C
Point de rosée: 5°C
Humidité: 76%
Baromètre: 999 hPa
Clouds: Clair
Visibility: 10 km
2020/06/06 05:20 EGMD 060520Z AUTO 27010KT 9999 NCD 09/05 Q0999